METAR Data
IDs: Format: Raw Decoded Include TAF

Data at: 0614 UTC 19 Aug 2019

KSRC 190556Z AUTO 00000KT 10SM CLR 23/23 A2998 RMK AO2 SLP151 T02330233 10294 20228 50006
KSRC 190456Z AUTO 00000KT 10SM CLR 24/24 A2998 RMK AO2 SLP152 T02390239 403440222
KSRC 190356Z AUTO 09004KT 10SM CLR 24/24 A2999 RMK AO2 SLP153 T02440239
KSRC 190256Z AUTO 00000KT 10SM CLR 25/24 A2996 RMK AO2 SLP146 T02500239 51027
KSRC 190156Z AUTO 19004KT 10SM CLR 26/24 A2995 RMK AO2 SLP143 T02560239
KSRC 190056Z AUTO 13004KT 10SM CLR 27/23 A2992 RMK AO2 SLP133 T02720233
KSRC 182356Z AUTO 19003KT 9SM CLR 29/23 A2988 RMK AO2 SLP117 T02940233 10344 20283 58003
KSRC 182256Z AUTO 20004KT 7SM CLR 29/23 A2988 RMK AO2 SLP118 T02890228
KSRC 182156Z AUTO 20006KT 10SM CLR 31/26 A2989 RMK AO2 SLP120 T03060261
KSRC 182056Z AUTO 21004KT 10SM CLR 32/27 A2989 RMK AO2 LTG DSNT SE AND S TSE48 SLP120 T03220267 58015
KSRC 181956Z AUTO 22004KT 10SM VCTS FEW039 33/26 A2992 RMK AO2 LTG DSNT N AND NE TSB20E33B35 SLP130 T03330256
KSRC 181935Z AUTO 19007KT 10SM VCTS FEW043 34/26 A2992 RMK AO2 LTG DSNT N AND NE TSB20E33B35
KSRC 181931Z AUTO 10SM VCTS FEW043 34/26 A2992 RMK AO2 LTG DSNT N AND NE TSB20 $
KSRC 181856Z AUTO 21008KT 10SM BKN033 BKN049 33/26 A2993 RMK AO2 LTG DSNT N SLP133 T03330261
KSRC 181756Z AUTO 21006KT 10SM BKN030 33/26 A2993 RMK AO2 LTG DSNT NW SLP135 T03330261 10333 20222 58007
KSRC 181656Z AUTO 19010KT 10SM CLR 32/26 A2995 RMK AO2 SLP140 T03220261
KSRC 181556Z AUTO 19007KT 10SM CLR 31/26 A2996 RMK AO2 SLP145 T03110261
KSRC 181456Z AUTO 20003KT 10SM CLR 28/25 A2996 RMK AO2 SLP143 T02830250 53007
KSRC 181356Z AUTO 19006KT 10SM CLR 27/24 A2994 RMK AO2 SLP138 T02670244
KSRC 181256Z AUTO 10SM CLR 26/24 A2994 RMK AO2 SLP139 T02610239
KSRC 181156Z AUTO 7SM CLR 22/22 A2993 RMK AO2 SLP135 T02220222 10256 20222 53010 $
KSRC 181056Z AUTO 00000KT 10SM CLR 23/23 A2990 RMK AO2 SLP126 T02280228
KSRC 180956Z AUTO 00000KT 10SM CLR 23/23 A2990 RMK AO2 SLP125 T02330233
KSRC 180856Z AUTO 20003KT 10SM CLR 24/23 A2990 RMK AO2 SLP125 T02390233 56004
KSRC 180756Z AUTO 19003KT 10SM CLR 24/23 A2991 RMK AO2 SLP126 T02390233
KSRC 180656Z AUTO 20003KT 10SM CLR 26/23 A2990 RMK AO2 SLP126 T02560233
KSRC 180556Z AUTO 20004KT 10SM CLR 26/23 A2991 RMK AO2 SLP129 T02560233 10317 20250 50003
KSRC 180456Z AUTO 18003KT 10SM CLR 26/23 A2992 RMK AO2 SLP130 T02560233 403500211
KSRC 180356Z AUTO 00000KT 10SM CLR 26/24 A2992 RMK AO2 SLP130 T02610239
KSRC 180256Z AUTO 17004KT 10SM CLR 27/23 A2991 RMK AO2 SLP127 T02670233 53007
KSRC 180156Z AUTO 15003KT 10SM CLR 28/24 A2990 RMK AO2 SLP123 T02780239
KSRC 180056Z AUTO 00000KT 10SM CLR 28/24 A2989 RMK AO2 SLP121 T02830244
KSRC 172356Z AUTO 15007KT 10SM CLR 32/24 A2988 RMK AO2 SLP120 T03170239 10350 20317 57006
KSRC 172256Z AUTO 16009KT 10SM CLR 33/24 A2989 RMK AO2 SLP121 T03330239
KSRC 172156Z AUTO 17008KT 10SM CLR 34/24 A2990 RMK AO2 SLP123 T03440239
KSRC 172056Z AUTO 18005KT 10SM CLR 35/24 A2990 RMK AO2 SLP125 T03500239 56021
KSRC 171956Z AUTO 19009KT 10SM CLR 34/24 A2991 RMK AO2 SLP129 T03440244
KSRC 171856Z AUTO 18006KT 10SM CLR 34/25 A2994 RMK AO2 SLP138 T03440250